createdAt,value
2023-04-10T00:01:28.798Z,36.60
2023-04-10T00:04:01.119Z,36.10
2023-04-10T00:06:33.483Z,35.20
2023-04-10T00:09:05.169Z,35.20
2023-04-10T00:11:36.955Z,35.60
2023-04-10T00:16:39.283Z,35.60
2023-04-10T00:19:11.372Z,35.10
2023-04-10T00:24:13.277Z,33.90
2023-04-10T00:26:44.971Z,35.10
2023-04-10T00:29:16.911Z,35.00
2023-04-10T00:31:49.122Z,34.60
2023-04-10T00:36:51.188Z,35.20
2023-04-10T00:39:23.017Z,36.70
2023-04-10T00:41:54.800Z,35.80
2023-04-10T00:44:26.611Z,36.30
2023-04-10T00:46:58.249Z,33.40
2023-04-10T00:49:29.935Z,36.80
2023-04-10T00:52:01.724Z,35.50
2023-04-10T00:54:36.230Z,37.50
2023-04-10T00:57:08.222Z,35.80
2023-04-10T00:59:40.056Z,36.70
2023-04-10T01:02:13.282Z,37.60
2023-04-10T01:04:45.735Z,34.50
2023-04-10T01:10:06.271Z,32.20
2023-04-10T01:12:52.002Z,35.00
2023-04-10T01:15:26.627Z,34.80
2023-04-10T01:18:03.312Z,37.40
2023-04-10T01:20:37.271Z,36.50
2023-04-10T01:23:42.767Z,35.20
2023-04-10T01:26:17.964Z,34.60
2023-04-10T01:29:01.637Z,34.10
2023-04-10T01:31:38.656Z,36.20
2023-04-10T01:34:16.724Z,37.80
2023-04-10T01:36:52.764Z,35.90
2023-04-10T01:39:26.207Z,35.90
2023-04-10T01:42:00.628Z,35.90
2023-04-10T01:44:45.363Z,31.90
2023-04-10T01:47:18.976Z,35.70
2023-04-10T01:49:51.638Z,34.70
2023-04-10T01:52:24.697Z,36.20
2023-04-10T01:55:07.377Z,36.80
2023-04-10T01:57:49.974Z,37.40
2023-04-10T02:00:22.939Z,37.10
2023-04-10T02:02:58.488Z,35.50
2023-04-10T02:05:40.751Z,36.90
2023-04-10T02:08:16.608Z,35.90
2023-04-10T02:10:57.272Z,35.20
2023-04-10T02:13:32.222Z,35.40
2023-04-10T02:16:07.203Z,36.40
2023-04-10T02:18:39.846Z,35.80
2023-04-10T02:21:11.758Z,36.00
2023-04-10T02:23:46.739Z,34.80
2023-04-10T02:26:20.391Z,39.40
2023-04-10T02:28:53.021Z,38.40
2023-04-10T02:31:25.419Z,39.60
2023-04-10T02:33:57.372Z,39.20
2023-04-10T02:36:29.984Z,40.20
2023-04-10T02:39:01.893Z,38.90
2023-04-10T02:41:34.115Z,37.00
2023-04-10T02:44:07.893Z,36.50
2023-04-10T02:46:39.748Z,36.90
2023-04-10T02:49:11.654Z,37.00
2023-04-10T02:51:43.582Z,37.20
2023-04-10T02:54:17.921Z,37.20
2023-04-10T02:56:49.863Z,39.30
2023-04-10T02:59:21.957Z,37.30
2023-04-10T03:01:53.884Z,37.80
2023-04-10T03:04:28.383Z,36.70
2023-04-10T03:07:00.345Z,39.40
2023-04-10T03:09:32.057Z,38.30
2023-04-10T03:12:04.826Z,38.80
2023-04-10T03:14:36.619Z,38.90
2023-04-10T03:17:08.540Z,39.20
2023-04-10T03:19:40.577Z,38.20
2023-04-10T03:24:45.309Z,39.10
2023-04-10T03:27:17.327Z,39.90
2023-04-10T03:29:49.141Z,39.60
2023-04-10T03:32:20.908Z,38.30
2023-04-10T03:34:52.636Z,39.10
2023-04-10T03:39:55.102Z,36.50
2023-04-10T03:42:27.071Z,37.20
2023-04-10T03:45:04.603Z,36.90
2023-04-10T03:47:36.499Z,38.40
2023-04-10T03:50:10.845Z,38.90
2023-04-10T03:52:50.620Z,39.30
2023-04-10T03:55:22.987Z,38.70
2023-04-10T03:57:56.049Z,38.50
2023-04-10T04:00:29.632Z,40.30
2023-04-10T04:03:21.917Z,37.80
2023-04-10T04:06:06.266Z,40.00
2023-04-10T04:08:42.503Z,38.70
2023-04-10T04:11:24.008Z,38.60
2023-04-10T04:14:08.463Z,38.00
2023-04-10T04:16:58.790Z,37.50
2023-04-10T04:19:57.388Z,39.10
2023-04-10T04:22:53.382Z,38.40
2023-04-10T04:25:49.677Z,37.40
2023-04-10T04:28:53.048Z,36.60
2023-04-10T04:31:43.283Z,36.10
2023-04-10T04:34:44.197Z,37.30
2023-04-10T04:37:36.192Z,36.20
2023-04-10T04:40:23.656Z,37.50
2023-04-10T04:43:33.623Z,34.90
2023-04-10T04:46:27.412Z,33.70
2023-04-10T04:49:20.879Z,36.40
2023-04-10T04:52:12.909Z,32.20
2023-04-10T04:54:49.335Z,33.70
2023-04-10T04:57:32.603Z,34.60
2023-04-10T05:00:25.098Z,36.30
2023-04-10T05:03:02.925Z,33.90
2023-04-10T05:05:52.382Z,35.40
2023-04-10T05:08:54.585Z,36.70
2023-04-10T05:12:14.807Z,34.80
2023-04-10T05:14:56.041Z,35.20
2023-04-10T05:18:00.641Z,35.10
2023-04-10T05:21:09.493Z,33.90
2023-04-10T05:24:07.497Z,33.80
2023-04-10T05:26:52.129Z,39.80
2023-04-10T05:29:48.875Z,36.00
2023-04-10T05:32:39.337Z,36.60
2023-04-10T05:35:34.403Z,34.60
2023-04-10T05:38:18.481Z,35.10
2023-04-10T05:41:25.126Z,36.40
2023-04-10T05:44:29.906Z,34.30
2023-04-10T05:47:36.415Z,32.20
2023-04-10T05:50:25.519Z,32.60
2023-04-10T05:53:22.184Z,34.10
2023-04-10T05:56:15.881Z,36.00
2023-04-10T05:59:00.813Z,31.30
2023-04-10T06:01:52.833Z,32.00
2023-04-10T06:04:30.785Z,31.50
2023-04-10T06:07:05.439Z,29.60
2023-04-10T06:09:40.170Z,34.90
2023-04-10T06:12:14.305Z,31.20
2023-04-10T06:14:50.431Z,34.10
2023-04-10T06:17:25.941Z,35.50
2023-04-10T06:20:04.664Z,33.40
2023-04-10T06:22:45.945Z,34.50
2023-04-10T06:25:19.524Z,35.00
2023-04-10T06:27:52.853Z,28.70
2023-04-10T06:30:28.735Z,32.60
2023-04-10T06:33:00.950Z,31.90
2023-04-10T06:35:32.860Z,31.20
2023-04-10T06:38:09.547Z,32.00
2023-04-10T06:40:43.268Z,31.80
2023-04-10T06:43:16.091Z,35.40
2023-04-10T06:45:52.702Z,31.70
2023-04-10T06:48:39.568Z,36.90
2023-04-10T06:51:14.329Z,33.80
2023-04-10T06:53:48.223Z,32.90
2023-04-10T06:56:23.304Z,33.30
2023-04-10T06:58:56.395Z,35.10
2023-04-10T07:01:29.011Z,34.70
2023-04-10T07:04:01.614Z,36.20
2023-04-10T07:06:35.504Z,29.90
2023-04-10T07:09:07.756Z,33.30
2023-04-10T07:11:40.195Z,34.90
2023-04-10T07:14:12.491Z,35.40
2023-04-10T07:16:44.261Z,36.50
2023-04-10T07:19:16.121Z,38.10
2023-04-10T07:21:50.563Z,34.00
2023-04-10T07:24:23.449Z,36.70
2023-04-10T07:26:57.217Z,38.10
2023-04-10T07:29:34.544Z,40.40
2023-04-10T07:34:37.893Z,33.90
2023-04-10T07:39:44.979Z,31.00
2023-04-10T07:42:17.314Z,31.90
2023-04-10T07:44:49.262Z,36.30
2023-04-10T07:47:22.046Z,34.00
2023-04-10T07:49:55.568Z,36.30
2023-04-10T07:52:27.830Z,31.70
2023-04-10T07:55:02.291Z,38.10
2023-04-10T07:57:34.652Z,37.20
2023-04-10T08:00:08.991Z,40.60
2023-04-10T08:02:47.751Z,40.60
2023-04-10T08:05:20.964Z,40.10
2023-04-10T08:07:55.746Z,34.40
2023-04-10T08:10:31.906Z,39.90
2023-04-10T08:13:04.900Z,36.90
2023-04-10T08:15:37.143Z,36.50
2023-04-10T08:18:09.207Z,39.90
2023-04-10T08:23:19.637Z,33.30
2023-04-10T08:25:52.801Z,30.60
2023-04-10T08:28:24.731Z,35.50
2023-04-10T08:30:57.103Z,33.70
2023-04-10T08:33:29.040Z,33.30
2023-04-10T08:36:00.964Z,32.40
2023-04-10T08:38:32.706Z,32.90
2023-04-10T08:41:04.630Z,34.90
2023-04-10T08:43:36.493Z,35.50
2023-04-10T08:46:09.155Z,32.50
2023-04-10T08:48:46.711Z,33.80
2023-04-10T08:51:26.376Z,33.20
2023-04-10T08:54:06.956Z,32.10
2023-04-10T08:56:41.719Z,32.60
2023-04-10T08:59:13.623Z,32.90
2023-04-10T09:01:46.850Z,33.40
2023-04-10T09:04:18.926Z,37.30
2023-04-10T09:09:21.335Z,31.70
2023-04-10T09:14:38.266Z,35.70
2023-04-10T09:17:18.211Z,33.90
2023-04-10T09:19:52.416Z,33.10
2023-04-10T09:22:33.131Z,35.90
2023-04-10T09:25:06.266Z,36.00
2023-04-10T09:27:40.147Z,34.60
2023-04-10T09:30:32.638Z,35.40
2023-04-10T09:33:04.950Z,34.60
2023-04-10T09:35:40.443Z,36.50
2023-04-10T09:38:19.623Z,33.10
2023-04-10T09:40:53.606Z,36.50
2023-04-10T09:43:27.647Z,32.00
2023-04-10T09:45:59.380Z,33.20
2023-04-10T09:48:31.072Z,33.60
2023-04-10T09:51:03.246Z,180.70
2023-04-10T09:53:50.988Z,58.20
2023-04-10T09:56:23.578Z,36.90
2023-04-10T09:58:57.994Z,32.80
2023-04-10T10:01:34.362Z,32.70
2023-04-10T10:04:06.928Z,30.40
2023-04-10T10:06:40.817Z,31.90
2023-04-10T10:09:12.707Z,32.60
2023-04-10T10:14:19.772Z,30.20
2023-04-10T10:16:56.709Z,28.10
2023-04-10T10:19:32.450Z,29.50
2023-04-10T10:22:05.269Z,32.40
2023-04-10T10:24:39.793Z,31.40
2023-04-10T10:27:13.117Z,28.20
2023-04-10T10:29:47.336Z,31.30
2023-04-10T10:32:19.727Z,29.70
2023-04-10T10:34:53.641Z,34.30
2023-04-10T10:37:26.505Z,34.60
2023-04-10T10:40:03.253Z,42.60
2023-04-10T10:42:39.581Z,34.70
2023-04-10T10:45:16.545Z,30.80
2023-04-10T10:47:52.232Z,29.40
2023-04-10T10:50:24.957Z,29.50
2023-04-10T10:53:01.147Z,29.80
2023-04-10T10:55:37.302Z,27.50
2023-04-10T10:58:13.803Z,32.00
2023-04-10T11:01:10.756Z,30.00
2023-04-10T11:03:46.540Z,30.50
2023-04-10T11:06:22.318Z,29.70
2023-04-10T11:08:56.009Z,28.20
2023-04-10T11:12:00.877Z,23.70
2023-04-10T11:14:37.346Z,23.80
2023-04-10T11:17:10.511Z,24.60
2023-04-10T11:20:01.826Z,24.80
2023-04-10T11:22:33.634Z,26.50
2023-04-10T11:25:10.287Z,26.00
2023-04-10T11:27:45.046Z,27.00
2023-04-10T11:30:36.490Z,26.20
2023-04-10T11:33:08.682Z,23.40
2023-04-10T11:35:41.332Z,24.80
2023-04-10T11:38:20.023Z,23.90
2023-04-10T11:41:08.651Z,23.70
2023-04-10T11:43:40.583Z,24.10
2023-04-10T11:48:42.848Z,21.60
2023-04-10T11:53:46.311Z,22.10
2023-04-10T11:56:23.993Z,17.70
2023-04-10T11:58:56.119Z,19.50
2023-04-10T12:01:28.071Z,17.60
2023-04-10T12:04:01.029Z,23.10
2023-04-10T12:06:35.756Z,21.30
2023-04-10T12:09:18.783Z,22.90
2023-04-10T12:11:56.497Z,22.80
2023-04-10T12:14:34.877Z,22.40
2023-04-10T12:17:09.124Z,20.40
2023-04-10T12:19:42.507Z,22.70
2023-04-10T12:22:16.812Z,21.00
2023-04-10T12:24:50.335Z,22.30
2023-04-10T12:27:23.018Z,22.90
2023-04-10T12:29:55.989Z,21.70
2023-04-10T12:32:28.432Z,21.40
2023-04-10T12:35:01.661Z,22.00
2023-04-10T12:37:50.442Z,23.60
2023-04-10T12:40:22.359Z,21.40
2023-04-10T12:45:42.140Z,17.90
2023-04-10T12:48:13.917Z,20.80
2023-04-10T12:50:51.982Z,20.20
2023-04-10T12:53:23.975Z,21.60
2023-04-10T12:58:34.384Z,20.20
2023-04-10T13:03:38.747Z,22.40
2023-04-10T13:06:11.047Z,21.80
2023-04-10T13:08:42.724Z,20.30
2023-04-10T13:11:14.469Z,19.80
2023-04-10T13:13:46.341Z,20.60
2023-04-10T13:16:18.232Z,20.10
2023-04-10T13:21:23.017Z,15.70
2023-04-10T13:23:55.200Z,18.70
2023-04-10T13:26:27.151Z,21.30
2023-04-10T13:28:58.757Z,19.80
2023-04-10T13:31:30.459Z,18.20
2023-04-10T13:34:02.386Z,19.60
2023-04-10T13:36:34.424Z,17.00
2023-04-10T13:39:06.338Z,14.30
2023-04-10T13:44:08.498Z,19.50
2023-04-10T13:49:10.719Z,13.50
2023-04-10T13:51:42.412Z,14.80
2023-04-10T13:54:16.846Z,14.10
2023-04-10T13:56:48.604Z,14.50
2023-04-10T13:59:20.281Z,13.70
2023-04-10T14:01:52.584Z,15.40
2023-04-10T14:04:24.447Z,16.80
2023-04-10T14:06:58.749Z,16.60
2023-04-10T14:09:30.747Z,14.20
2023-04-10T14:12:06.061Z,15.60
2023-04-10T14:14:37.930Z,16.10
2023-04-10T14:17:09.818Z,14.10
2023-04-10T14:22:11.975Z,13.00
2023-04-10T14:24:43.901Z,15.10
2023-04-10T14:29:54.395Z,13.40
2023-04-10T14:32:26.800Z,14.30
2023-04-10T14:37:28.993Z,12.70
2023-04-10T14:40:00.843Z,13.70
2023-04-10T14:42:32.777Z,14.80
2023-04-10T14:47:36.397Z,20.00
2023-04-10T14:50:10.082Z,19.20
2023-04-10T14:52:42.116Z,23.30
2023-04-10T14:57:44.678Z,40.20
2023-04-10T15:00:17.379Z,27.00
2023-04-10T15:02:49.371Z,18.50
2023-04-10T15:05:21.499Z,18.20
2023-04-10T15:10:23.929Z,21.80
2023-04-10T15:12:55.812Z,16.10
2023-04-10T15:17:58.510Z,17.10
2023-04-10T15:20:30.352Z,17.80
2023-04-10T15:23:02.658Z,16.30
2023-04-10T15:25:36.023Z,18.90
2023-04-10T15:28:08.891Z,18.10
2023-04-10T15:30:43.977Z,27.00
2023-04-10T15:33:15.776Z,24.70
2023-04-10T15:35:50.592Z,18.90
2023-04-10T15:38:22.400Z,17.10
2023-04-10T15:40:54.068Z,20.20
2023-04-10T15:43:26.162Z,16.50
2023-04-10T15:48:32.139Z,15.40
2023-04-10T15:51:20.334Z,16.40
2023-04-10T15:53:52.442Z,18.20
2023-04-10T15:56:24.687Z,23.10
2023-04-10T15:58:56.766Z,23.90
2023-04-10T16:01:28.889Z,17.80
2023-04-10T16:04:01.547Z,19.10
2023-04-10T16:06:34.663Z,22.00
2023-04-10T16:09:22.120Z,24.00
2023-04-10T16:11:58.643Z,27.90
2023-04-10T16:14:31.025Z,22.50
2023-04-10T16:17:03.387Z,24.10
2023-04-10T16:19:35.615Z,21.20
2023-04-10T16:22:11.326Z,16.80
2023-04-10T16:24:44.626Z,19.20
2023-04-10T16:27:17.204Z,22.20
2023-04-10T16:29:49.542Z,24.80
2023-04-10T16:32:22.168Z,21.30
2023-04-10T16:34:54.537Z,16.90
2023-04-10T16:37:26.946Z,17.30
2023-04-10T16:40:00.638Z,18.80
2023-04-10T16:42:33.258Z,18.10
2023-04-10T16:45:05.818Z,19.60
2023-04-10T16:47:37.803Z,28.40
2023-04-10T16:50:12.332Z,25.00
2023-04-10T16:52:44.459Z,21.60
2023-04-10T16:55:19.538Z,19.90
2023-04-10T16:57:52.209Z,19.60
2023-04-10T17:00:25.094Z,21.10
2023-04-10T17:02:59.459Z,22.10
2023-04-10T17:05:37.387Z,26.40
2023-04-10T17:08:09.798Z,25.50
2023-04-10T17:10:41.968Z,34.70
2023-04-10T17:15:45.340Z,22.90
2023-04-10T17:18:20.050Z,21.50
2023-04-10T17:20:52.398Z,21.70
2023-04-10T17:23:24.486Z,21.40
2023-04-10T17:25:56.812Z,21.10
2023-04-10T17:28:30.432Z,21.40
2023-04-10T17:31:02.783Z,22.90
2023-04-10T17:33:35.040Z,25.10
2023-04-10T17:36:10.234Z,18.60
2023-04-10T17:38:43.074Z,18.00
2023-04-10T17:41:17.489Z,20.70
2023-04-10T17:43:51.253Z,24.40
2023-04-10T17:46:23.398Z,26.30
2023-04-10T17:49:01.509Z,19.90
2023-04-10T17:51:35.006Z,16.50
2023-04-10T17:54:07.390Z,15.60
2023-04-10T17:56:40.156Z,16.20
2023-04-10T17:59:12.551Z,15.70
2023-04-10T18:04:22.379Z,15.00
2023-04-10T18:06:55.492Z,15.80
2023-04-10T18:09:28.226Z,16.70
2023-04-10T18:12:01.685Z,16.50
2023-04-10T18:14:33.852Z,17.10
2023-04-10T18:17:06.519Z,17.00
2023-04-10T18:19:39.488Z,16.60
2023-04-10T18:22:11.900Z,16.30
2023-04-10T18:24:49.155Z,22.20
2023-04-10T18:27:22.785Z,22.10
2023-04-10T18:29:57.990Z,22.90
2023-04-10T18:32:30.433Z,27.00
2023-04-10T18:35:03.684Z,22.40
2023-04-10T18:37:36.732Z,24.90
2023-04-10T18:40:16.212Z,30.30
2023-04-10T18:42:49.219Z,33.10
2023-04-10T18:45:21.648Z,31.80
2023-04-10T18:47:54.018Z,30.70
2023-04-10T18:50:26.030Z,29.60
2023-04-10T18:52:57.987Z,25.90
2023-04-10T18:58:01.523Z,18.40
2023-04-10T19:00:34.228Z,16.00
2023-04-10T19:03:07.140Z,19.70
2023-04-10T19:05:43.630Z,21.00
2023-04-10T19:08:17.176Z,18.70
2023-04-10T19:10:49.696Z,20.70
2023-04-10T19:13:25.716Z,23.40
2023-04-10T19:16:04.996Z,21.60
2023-04-10T19:18:49.771Z,19.60
2023-04-10T19:21:23.857Z,21.30
2023-04-10T19:23:58.644Z,21.90
2023-04-10T19:26:35.329Z,20.40
2023-04-10T19:29:15.132Z,17.70
2023-04-10T19:31:52.423Z,16.00
2023-04-10T19:34:29.977Z,14.40
2023-04-10T19:37:05.611Z,15.20
2023-04-10T19:39:40.786Z,18.70
2023-04-10T19:42:19.748Z,18.70
2023-04-10T19:44:56.318Z,17.60
2023-04-10T19:47:31.533Z,19.60
2023-04-10T19:50:07.576Z,17.10
2023-04-10T19:52:44.146Z,20.50
2023-04-10T19:55:21.620Z,21.50
2023-04-10T19:58:03.747Z,24.40
2023-04-10T20:00:37.732Z,23.40
2023-04-10T20:03:10.500Z,26.10
2023-04-10T20:05:45.345Z,27.10
2023-04-10T20:08:22.387Z,26.10
2023-04-10T20:10:56.665Z,26.60
2023-04-10T20:13:29.949Z,25.70
2023-04-10T20:16:01.941Z,26.20
2023-04-10T20:18:34.511Z,31.40
2023-04-10T20:21:07.956Z,29.30
2023-04-10T20:23:39.947Z,31.90
2023-04-10T20:26:13.799Z,32.70
2023-04-10T20:28:45.564Z,33.30
2023-04-10T20:31:17.508Z,33.80
2023-04-10T20:33:49.320Z,34.20
2023-04-10T20:36:21.426Z,39.00
2023-04-10T20:38:53.648Z,38.20
2023-04-10T20:41:26.407Z,40.10
2023-04-10T20:43:58.470Z,38.40
2023-04-10T20:46:30.567Z,37.40
2023-04-10T20:51:33.729Z,32.70
2023-04-10T20:54:06.897Z,29.00
2023-04-10T20:56:43.277Z,28.40
2023-04-10T20:59:15.809Z,27.50
2023-04-10T21:01:47.603Z,26.90
2023-04-10T21:04:19.828Z,28.20
2023-04-10T21:06:51.660Z,28.20
2023-04-10T21:09:23.613Z,28.40
2023-04-10T21:11:55.316Z,25.60
2023-04-10T21:14:27.200Z,18.70
2023-04-10T21:16:58.993Z,24.00
2023-04-10T21:19:30.702Z,24.10
2023-04-10T21:22:02.456Z,27.60
2023-04-10T21:24:34.164Z,30.20
2023-04-10T21:27:06.398Z,29.90
2023-04-10T21:29:38.096Z,25.70
2023-04-10T21:32:10.097Z,26.00
2023-04-10T21:37:12.370Z,24.80
2023-04-10T21:39:43.996Z,23.30
2023-04-10T21:42:15.675Z,26.80
2023-04-10T21:44:47.408Z,25.70
2023-04-10T21:47:19.229Z,25.50
2023-04-10T21:49:50.875Z,27.10
2023-04-10T21:52:22.799Z,28.20
2023-04-10T21:54:54.744Z,27.90
2023-04-10T21:57:26.600Z,30.40
2023-04-10T21:59:58.359Z,29.00
2023-04-10T22:02:30.239Z,27.20
2023-04-10T22:05:02.151Z,30.50
2023-04-10T22:07:34.144Z,31.70
2023-04-10T22:10:06.686Z,30.30
2023-04-10T22:12:38.599Z,26.70
2023-04-10T22:15:11.932Z,27.40
2023-04-10T22:17:43.743Z,24.60
2023-04-10T22:20:15.692Z,27.20
2023-04-10T22:22:47.430Z,28.40
2023-04-10T22:25:19.563Z,28.60
2023-04-10T22:30:21.589Z,30.90
2023-04-10T22:32:58.246Z,30.40
2023-04-10T22:35:30.568Z,28.40
2023-04-10T22:38:03.686Z,27.70
2023-04-10T22:40:35.747Z,30.10
2023-04-10T22:43:07.459Z,33.30
2023-04-10T22:45:40.695Z,30.60
2023-04-10T22:48:12.651Z,29.90
2023-04-10T22:50:44.314Z,27.60
2023-04-10T22:53:16.278Z,28.60
2023-04-10T22:55:48.012Z,27.10
2023-04-10T22:58:19.755Z,25.00
2023-04-10T23:00:56.414Z,25.00
2023-04-10T23:03:28.229Z,19.90
2023-04-10T23:06:00.111Z,21.50
2023-04-10T23:08:31.907Z,18.10
2023-04-10T23:11:03.741Z,22.70
2023-04-10T23:16:06.354Z,22.80
2023-04-10T23:18:38.119Z,24.70
2023-04-10T23:21:10.453Z,25.40
2023-04-10T23:23:42.226Z,26.70
2023-04-10T23:26:14.009Z,29.40
2023-04-10T23:28:45.691Z,28.90
2023-04-10T23:31:17.466Z,27.00
2023-04-10T23:33:49.649Z,29.30
2023-04-10T23:36:21.543Z,28.80
2023-04-10T23:38:53.657Z,27.90
2023-04-10T23:41:25.740Z,29.70
2023-04-10T23:43:57.534Z,30.50
2023-04-10T23:46:29.222Z,29.60
2023-04-10T23:49:00.936Z,31.60
2023-04-10T23:51:32.970Z,29.70
2023-04-10T23:56:35.497Z,25.60
2023-04-10T23:59:07.230Z,22.20
